Capitol Logistics 2088

Operating for MET



KBOS
Logan International Airport
Boston, Massachusetts
KCVG
Cincinnati/Northern Kentucky International Airport
Covington, Kentucky

Activity Log

Date Flight Route Aircraft Duration
No Flights Yet

Route Details

Aircraft Information
Group: North America Fleet
Types: B738,B752,B762,B763
Route Data
Demand: V
Distance: 653nm
Duration: 1h 54m
Recm'd Route: REVSS4 REVSS CTR HNK J49 PSB MAULL KODIE CTW TIGRR3
Origin Wx: KBOS 270454Z 21014KT 10SM BKN034 OVC220 16/13 A3007 RMK AO2 SLP183 T01610128 402280100
Dest. Wx: KCVG 270518Z 23008KT 10SM FEW009 BKN042 OVC050 17/16 A2982 RMK AO2 RAB0453E05 P0000 T01720161 $
Notes: OPF METRO AIR VIRTUAL

Financial History
Total Freight: 0lbs
Average Load: 0lbs/flt
Fuel Used: 0lbs
Avg. Fuel Used: 0lbs/flt
Fuel Expense: $0
Avg. Fuel Expense: $0
Avg. Fuel Cost: $0/lbs
Total Gross Income: $0
Pilot Pay: $0
Total Expenses: $0
Total Revenue: $0
Average Revenue: $0